createdAt,value
2018-06-19T00:01:17.185Z,6.60
2018-06-19T00:03:45.571Z,6.93
2018-06-19T00:06:13.963Z,6.60
2018-06-19T00:08:42.379Z,7.23
2018-06-19T00:11:11.473Z,7.40
2018-06-19T00:13:40.129Z,8.00
2018-06-19T00:16:08.637Z,8.00
2018-06-19T00:18:40.455Z,7.27
2018-06-19T00:21:10.961Z,7.10
2018-06-19T00:23:39.540Z,7.53
2018-06-19T00:26:07.907Z,8.43
2018-06-19T00:28:39.988Z,7.80
2018-06-19T00:31:08.363Z,8.93
2018-06-19T00:33:36.745Z,7.63
2018-06-19T00:36:05.130Z,8.30
2018-06-19T00:38:33.531Z,7.87
2018-06-19T00:41:01.904Z,7.87
2018-06-19T00:43:30.309Z,8.93
2018-06-19T00:45:59.383Z,8.63
2018-06-19T00:48:27.807Z,8.47
2018-06-19T00:50:56.193Z,8.47
2018-06-19T00:53:24.624Z,9.07
2018-06-19T00:55:53.029Z,8.73
2018-06-19T00:58:21.408Z,8.40
2018-06-19T01:00:49.793Z,7.10
2018-06-19T01:03:18.160Z,8.40
2018-06-19T01:05:46.545Z,8.47
2018-06-19T01:08:14.943Z,8.43
2018-06-19T01:10:43.326Z,7.40
2018-06-19T01:13:11.698Z,8.67
2018-06-19T01:15:40.091Z,7.53
2018-06-19T01:18:08.457Z,7.50
2018-06-19T01:20:36.848Z,8.40
2018-06-19T01:23:05.247Z,7.30
2018-06-19T01:25:33.643Z,7.33
2018-06-19T01:28:02.012Z,7.10
2018-06-19T01:30:30.403Z,7.50
2018-06-19T01:32:58.765Z,7.03
2018-06-19T01:35:27.153Z,7.93
2018-06-19T01:37:55.567Z,7.40
2018-06-19T01:40:23.929Z,7.47
2018-06-19T01:42:52.294Z,8.47
2018-06-19T01:45:20.869Z,7.70
2018-06-19T01:47:49.239Z,8.43
2018-06-19T01:50:17.635Z,7.60
2018-06-19T01:52:46.012Z,8.90
2018-06-19T01:55:14.427Z,8.73
2018-06-19T01:57:42.806Z,9.33
2018-06-19T02:00:11.186Z,8.93
2018-06-19T02:02:39.578Z,8.53
2018-06-19T02:05:08.083Z,8.73
2018-06-19T02:07:36.505Z,9.10
2018-06-19T02:10:04.916Z,9.17
2018-06-19T02:12:33.382Z,9.08
2018-06-19T02:15:01.782Z,8.33
2018-06-19T02:17:30.173Z,8.30
2018-06-19T02:19:58.551Z,8.43
2018-06-19T02:22:26.961Z,9.20
2018-06-19T02:24:55.358Z,9.40
2018-06-19T02:27:23.755Z,7.83
2018-06-19T02:29:52.130Z,9.10
2018-06-19T02:32:20.526Z,8.47
2018-06-19T02:34:48.911Z,8.13
2018-06-19T02:37:17.350Z,7.73
2018-06-19T02:39:45.734Z,8.97
2018-06-19T02:42:14.126Z,8.67
2018-06-19T02:44:42.540Z,8.60
2018-06-19T02:47:10.946Z,9.70
2018-06-19T02:49:39.327Z,9.00
2018-06-19T02:52:07.717Z,7.93
2018-06-19T02:54:36.084Z,8.37
2018-06-19T02:57:04.612Z,6.80
2018-06-19T02:59:32.990Z,9.83
2018-06-19T03:02:01.394Z,8.80
2018-06-19T03:04:29.761Z,10.10
2018-06-19T03:06:58.194Z,9.13
2018-06-19T03:09:26.601Z,10.80
2018-06-19T03:11:55.005Z,9.00
2018-06-19T03:14:23.388Z,9.10
2018-06-19T03:16:51.810Z,9.40
2018-06-19T03:19:20.181Z,8.43
2018-06-19T03:21:48.551Z,8.03
2018-06-19T03:24:16.954Z,9.83
2018-06-19T03:26:45.331Z,9.03
2018-06-19T03:29:13.722Z,9.70
2018-06-19T03:31:42.103Z,9.67
2018-06-19T03:34:10.507Z,9.13
2018-06-19T03:36:38.898Z,10.60
2018-06-19T03:39:09.687Z,10.63
2018-06-19T03:41:38.092Z,9.40
2018-06-19T03:44:06.521Z,11.23
2018-06-19T03:46:34.918Z,10.17
2018-06-19T03:49:03.818Z,9.97
2018-06-19T03:51:32.470Z,10.10
2018-06-19T03:54:01.251Z,9.80
2018-06-19T03:56:30.615Z,10.87
2018-06-19T03:58:59.033Z,9.40
2018-06-19T04:01:27.525Z,11.47
2018-06-19T04:03:56.041Z,10.63
2018-06-19T04:06:28.568Z,10.97
2018-06-19T04:08:56.991Z,11.13
2018-06-19T04:11:25.363Z,10.93
2018-06-19T04:13:53.753Z,11.23
2018-06-19T04:16:22.122Z,11.10
2018-06-19T04:18:50.622Z,11.40
2018-06-19T04:21:19.175Z,11.10
2018-06-19T04:23:47.758Z,11.80
2018-06-19T04:26:16.122Z,11.63
2018-06-19T04:28:44.531Z,10.90
2018-06-19T04:31:13.002Z,10.80
2018-06-19T04:33:41.497Z,11.13
2018-06-19T04:36:09.869Z,11.33
2018-06-19T04:38:38.665Z,12.10
2018-06-19T04:41:07.035Z,9.60
2018-06-19T04:43:35.753Z,11.33
2018-06-19T04:46:04.114Z,10.90
2018-06-19T04:48:32.499Z,11.60
2018-06-19T04:51:00.898Z,12.10
2018-06-19T04:53:29.542Z,12.67
2018-06-19T04:55:57.955Z,12.30
2018-06-19T04:58:26.318Z,13.23
2018-06-19T05:00:54.759Z,13.40
2018-06-19T05:03:23.137Z,14.60
2018-06-19T05:05:51.554Z,14.10
2018-06-19T05:08:19.960Z,12.90
2018-06-19T05:10:48.357Z,13.03
2018-06-19T05:13:16.751Z,14.10
2018-06-19T05:15:45.239Z,13.37
2018-06-19T05:18:13.623Z,12.53
2018-06-19T05:20:42.029Z,12.77
2018-06-19T05:23:10.406Z,11.67
2018-06-19T05:25:38.811Z,10.97
2018-06-19T05:28:07.199Z,12.27
2018-06-19T05:30:35.607Z,10.50
2018-06-19T05:33:04.098Z,9.43
2018-06-19T05:35:32.491Z,8.80
2018-06-19T05:38:00.862Z,8.10
2018-06-19T05:40:29.282Z,7.50
2018-06-19T05:42:57.651Z,8.00
2018-06-19T05:45:26.046Z,7.70
2018-06-19T05:47:54.422Z,8.00
2018-06-19T05:50:22.828Z,6.60
2018-06-19T05:52:51.671Z,7.37
2018-06-19T05:55:20.037Z,7.53
2018-06-19T05:57:48.405Z,6.83
2018-06-19T06:00:16.881Z,6.60
2018-06-19T06:02:45.365Z,6.10
2018-06-19T06:05:13.839Z,5.13
2018-06-19T06:07:42.260Z,5.60
2018-06-19T06:10:10.653Z,5.43
2018-06-19T06:12:39.047Z,4.97
2018-06-19T06:15:07.428Z,5.80
2018-06-19T06:17:35.813Z,5.40
2018-06-19T06:20:04.574Z,5.10
2018-06-19T06:22:32.968Z,4.50
2018-06-19T06:25:01.325Z,4.50
2018-06-19T06:27:29.717Z,4.10
2018-06-19T06:29:58.092Z,4.73
2018-06-19T06:32:26.480Z,4.93
2018-06-19T06:34:54.846Z,4.60
2018-06-19T06:37:23.232Z,4.70
2018-06-19T06:39:51.596Z,5.63
2018-06-19T06:42:19.991Z,5.00
2018-06-19T06:44:48.382Z,5.00
2018-06-19T06:47:16.795Z,4.40
2018-06-19T06:49:45.187Z,5.40
2018-06-19T06:52:13.565Z,5.50
2018-06-19T06:54:41.938Z,5.13
2018-06-19T06:57:10.354Z,5.23
2018-06-19T06:59:38.725Z,5.07
2018-06-19T07:02:07.110Z,6.17
2018-06-19T07:04:35.483Z,5.90
2018-06-19T07:07:03.873Z,5.83
2018-06-19T07:09:32.264Z,6.30
2018-06-19T07:12:00.653Z,5.97
2018-06-19T07:14:29.017Z,6.23
2018-06-19T07:16:57.411Z,5.30
2018-06-19T07:19:25.821Z,6.53
2018-06-19T07:21:54.207Z,5.80
2018-06-19T07:24:22.583Z,6.50
2018-06-19T07:26:50.963Z,6.33
2018-06-19T07:29:19.352Z,6.23
2018-06-19T07:31:47.835Z,5.57
2018-06-19T07:34:16.226Z,6.03
2018-06-19T07:36:44.601Z,5.23
2018-06-19T07:39:12.986Z,5.47
2018-06-19T07:41:41.353Z,6.30
2018-06-19T07:44:09.791Z,5.50
2018-06-19T07:46:38.150Z,5.23
2018-06-19T07:49:06.544Z,5.83
2018-06-19T07:51:34.905Z,6.00
2018-06-19T07:54:03.489Z,4.90
2018-06-19T07:56:31.849Z,5.93
2018-06-19T07:59:00.314Z,5.07
2018-06-19T08:01:28.669Z,5.43
2018-06-19T08:03:57.057Z,5.23
2018-06-19T08:06:25.432Z,4.00
2018-06-19T08:08:53.842Z,5.40
2018-06-19T08:11:22.208Z,5.10
2018-06-19T08:13:50.599Z,4.87
2018-06-19T08:16:18.979Z,5.30
2018-06-19T08:18:47.406Z,5.13
2018-06-19T08:21:15.769Z,4.20
2018-06-19T08:23:44.153Z,5.10
2018-06-19T08:26:12.519Z,3.97
2018-06-19T08:28:40.932Z,4.53
2018-06-19T08:31:09.566Z,4.23
2018-06-19T08:33:37.947Z,4.50
2018-06-19T08:36:06.318Z,5.57
2018-06-19T08:38:34.697Z,5.20
2018-06-19T08:41:03.058Z,5.27
2018-06-19T08:43:31.446Z,6.37
2018-06-19T08:45:59.807Z,6.30
2018-06-19T08:48:28.166Z,6.33
2018-06-19T08:50:56.564Z,5.60
2018-06-19T08:53:24.961Z,5.87
2018-06-19T08:55:53.355Z,5.47
2018-06-19T08:58:21.715Z,4.90
2018-06-19T09:00:50.237Z,5.67
2018-06-19T09:03:18.590Z,5.40
2018-06-19T09:05:46.990Z,6.43
2018-06-19T09:08:15.399Z,7.33
2018-06-19T09:10:43.801Z,6.40
2018-06-19T09:13:12.169Z,5.60
2018-06-19T09:15:40.567Z,5.67
2018-06-19T09:18:08.933Z,5.70
2018-06-19T09:20:37.340Z,5.33
2018-06-19T09:23:05.860Z,6.50
2018-06-19T09:25:34.261Z,4.80
2018-06-19T09:28:02.626Z,5.87
2018-06-19T09:30:31.021Z,5.50
2018-06-19T09:32:59.407Z,5.80
2018-06-19T09:35:27.818Z,6.83
2018-06-19T09:37:56.200Z,5.63
2018-06-19T09:40:24.599Z,5.80
2018-06-19T09:42:52.977Z,5.97
2018-06-19T09:45:21.379Z,5.17
2018-06-19T09:47:49.755Z,6.00
2018-06-19T09:50:18.154Z,6.10
2018-06-19T09:52:46.582Z,5.83
2018-06-19T09:55:14.993Z,5.50
2018-06-19T09:57:43.366Z,6.50
2018-06-19T10:00:11.773Z,5.60
2018-06-19T10:02:40.189Z,5.23
2018-06-19T10:05:08.594Z,5.57
2018-06-19T10:07:37.056Z,5.97
2018-06-19T10:10:05.479Z,5.30
2018-06-19T10:12:33.876Z,5.60
2018-06-19T10:15:02.258Z,5.83
2018-06-19T10:17:30.677Z,5.27
2018-06-19T10:19:59.065Z,5.20
2018-06-19T10:22:27.461Z,5.80
2018-06-19T10:24:55.919Z,5.20
2018-06-19T10:27:24.309Z,4.90
2018-06-19T10:29:52.685Z,6.00
2018-06-19T10:32:21.073Z,4.93
2018-06-19T10:34:49.452Z,4.77
2018-06-19T10:37:17.847Z,5.53
2018-06-19T10:39:46.226Z,6.07
2018-06-19T10:42:14.623Z,5.27
2018-06-19T10:44:43.001Z,4.23
2018-06-19T10:47:11.401Z,4.70
2018-06-19T10:49:39.922Z,5.03
2018-06-19T10:52:08.393Z,4.67
2018-06-19T10:54:36.768Z,5.60
2018-06-19T10:57:05.183Z,5.40
2018-06-19T10:59:33.564Z,4.80
2018-06-19T11:02:01.967Z,4.20
2018-06-19T11:04:30.345Z,5.10
2018-06-19T11:06:59.078Z,4.40
2018-06-19T11:09:27.470Z,4.80
2018-06-19T11:11:55.879Z,5.27
2018-06-19T11:14:24.246Z,5.17
2018-06-19T11:16:52.675Z,4.37
2018-06-19T11:19:21.047Z,4.37
2018-06-19T11:21:49.442Z,4.70
2018-06-19T11:24:17.810Z,4.87
2018-06-19T11:26:46.213Z,4.80
2018-06-19T11:29:14.582Z,4.10
2018-06-19T11:31:42.953Z,5.30
2018-06-19T11:34:11.338Z,4.87
2018-06-19T11:36:39.717Z,4.43
2018-06-19T11:39:09.809Z,4.90
2018-06-19T11:41:38.190Z,5.83
2018-06-19T11:44:06.749Z,4.40
2018-06-19T11:46:35.115Z,4.43
2018-06-19T11:49:03.616Z,3.93
2018-06-19T11:51:31.992Z,4.57
2018-06-19T11:54:00.877Z,4.70
2018-06-19T11:56:29.234Z,4.73
2018-06-19T11:58:57.617Z,4.47
2018-06-19T12:01:25.981Z,5.03
2018-06-19T12:03:54.370Z,5.60
2018-06-19T12:06:22.743Z,4.27
2018-06-19T12:08:51.154Z,4.70
2018-06-19T12:11:19.518Z,3.93
2018-06-19T12:13:47.903Z,4.33
2018-06-19T12:16:16.271Z,4.60
2018-06-19T12:18:44.738Z,5.33
2018-06-19T12:21:13.102Z,4.57
2018-06-19T12:23:41.511Z,4.57
2018-06-19T12:26:09.890Z,4.30
2018-06-19T12:28:38.273Z,5.00
2018-06-19T12:31:06.735Z,5.27
2018-06-19T12:33:35.154Z,4.30
2018-06-19T12:36:03.713Z,3.87
2018-06-19T12:38:32.145Z,4.90
2018-06-19T12:41:00.499Z,4.60
2018-06-19T12:43:28.881Z,4.87
2018-06-19T12:45:57.259Z,4.47
2018-06-19T12:48:25.677Z,5.23
2018-06-19T12:52:06.327Z,4.80
2018-06-19T12:54:54.491Z,4.63
2018-06-19T12:57:22.855Z,4.43
2018-06-19T12:59:51.241Z,4.70
2018-06-19T13:02:19.631Z,3.93
2018-06-19T13:04:59.435Z,3.67
2018-06-19T13:07:28.303Z,4.30
2018-06-19T13:09:56.916Z,4.00
2018-06-19T13:12:36.733Z,4.30
2018-06-19T13:15:05.126Z,3.83
2018-06-19T13:17:44.979Z,4.10
2018-06-19T13:20:24.915Z,4.10
2018-06-19T13:22:53.379Z,4.30
2018-06-19T13:25:21.779Z,3.90
2018-06-19T13:27:50.240Z,4.07
2018-06-19T13:30:29.986Z,4.80
2018-06-19T13:32:58.349Z,3.60
2018-06-19T13:35:26.794Z,4.57
2018-06-19T13:37:55.148Z,4.30
2018-06-19T13:41:32.508Z,4.03
2018-06-19T13:45:09.543Z,3.90
2018-06-19T13:47:37.913Z,3.70
2018-06-19T13:50:06.284Z,3.17
2018-06-19T13:52:35.030Z,4.73
2018-06-19T13:57:35.244Z,3.50
2018-06-19T14:00:04.918Z,3.43
2018-06-19T14:02:33.330Z,2.70
2018-06-19T14:05:02.195Z,3.87
2018-06-19T14:07:32.776Z,3.67
2018-06-19T14:10:21.579Z,3.77
2018-06-19T14:13:04.907Z,3.37
2018-06-19T14:15:39.467Z,3.07
2018-06-19T14:18:08.248Z,3.57
2018-06-19T14:20:36.942Z,4.00
2018-06-19T14:23:05.475Z,3.10
2018-06-19T14:25:33.878Z,3.57
2018-06-19T14:28:02.242Z,4.43
2018-06-19T14:30:30.625Z,2.90
2018-06-19T14:32:59.153Z,4.07
2018-06-19T14:35:27.539Z,3.70
2018-06-19T14:37:55.925Z,3.40
2018-06-19T14:40:24.344Z,4.57
2018-06-19T14:42:52.723Z,3.40
2018-06-19T14:45:21.111Z,3.90
2018-06-19T14:47:49.477Z,4.50
2018-06-19T14:50:17.861Z,3.17
2018-06-19T14:52:46.217Z,3.53
2018-06-19T14:55:14.607Z,2.90
2018-06-19T14:57:42.969Z,3.23
2018-06-19T15:00:12.017Z,3.53
2018-06-19T15:02:40.801Z,3.00
2018-06-19T15:05:09.393Z,3.27
2018-06-19T15:07:54.135Z,2.80
2018-06-19T15:10:23.149Z,3.10
2018-06-19T15:12:51.706Z,2.70
2018-06-19T15:15:20.085Z,2.67
2018-06-19T15:17:48.454Z,2.77
2018-06-19T15:20:16.933Z,2.63
2018-06-19T15:22:45.425Z,2.70
2018-06-19T15:25:13.815Z,2.40
2018-06-19T15:27:42.177Z,3.13
2018-06-19T15:30:10.576Z,2.90
2018-06-19T15:32:38.949Z,3.13
2018-06-19T15:35:07.365Z,2.87
2018-06-19T15:37:35.734Z,3.33
2018-06-19T15:40:04.135Z,2.27
2018-06-19T15:42:32.546Z,3.00
2018-06-19T15:45:00.924Z,2.80
2018-06-19T15:47:29.313Z,2.40
2018-06-19T15:49:57.683Z,3.17
2018-06-19T15:52:26.082Z,3.30
2018-06-19T15:54:54.441Z,3.27
2018-06-19T15:57:22.891Z,2.50
2018-06-19T15:59:51.239Z,2.80
2018-06-19T16:02:19.639Z,3.70
2018-06-19T16:04:48.019Z,2.60
2018-06-19T16:07:16.417Z,3.30
2018-06-19T16:09:44.809Z,3.73
2018-06-19T16:12:13.257Z,3.63
2018-06-19T16:14:41.617Z,3.10
2018-06-19T16:17:10.002Z,2.83
2018-06-19T16:19:38.366Z,3.00
2018-06-19T16:22:06.764Z,3.50
2018-06-19T16:24:35.129Z,3.00
2018-06-19T16:27:03.627Z,3.33
2018-06-19T16:29:32.019Z,2.90
2018-06-19T16:32:00.420Z,3.20
2018-06-19T16:34:28.807Z,3.20
2018-06-19T16:36:57.211Z,2.67
2018-06-19T16:39:25.582Z,2.80
2018-06-19T16:41:53.975Z,3.43
2018-06-19T16:44:22.338Z,3.90
2018-06-19T16:46:50.721Z,3.50
2018-06-19T16:49:19.095Z,3.33
2018-06-19T16:51:47.485Z,3.90
2018-06-19T16:54:15.838Z,3.90
2018-06-19T16:56:44.235Z,3.57
2018-06-19T16:59:12.606Z,4.00
2018-06-19T17:01:40.979Z,4.63
2018-06-19T17:04:09.409Z,3.60
2018-06-19T17:06:37.774Z,3.47
2018-06-19T17:09:07.535Z,4.13
2018-06-19T17:11:36.058Z,4.40
2018-06-19T17:14:04.675Z,3.87
2018-06-19T17:16:33.079Z,4.30
2018-06-19T17:19:01.479Z,4.23
2018-06-19T17:21:30.209Z,4.03
2018-06-19T17:23:58.906Z,4.20
2018-06-19T17:26:27.266Z,4.23
2018-06-19T17:28:55.653Z,4.27
2018-06-19T17:31:24.031Z,3.70
2018-06-19T17:33:52.424Z,4.20
2018-06-19T17:36:20.800Z,4.17
2018-06-19T17:38:49.191Z,4.33
2018-06-19T17:41:17.556Z,4.20
2018-06-19T17:43:46.039Z,5.00
2018-06-19T17:46:14.429Z,4.10
2018-06-19T17:48:43.666Z,4.40
2018-06-19T17:51:12.037Z,4.33
2018-06-19T17:53:40.401Z,4.40
2018-06-19T17:56:09.062Z,4.30
2018-06-19T17:58:37.439Z,4.63
2018-06-19T18:01:06.175Z,4.43
2018-06-19T18:03:34.555Z,5.20
2018-06-19T18:06:02.959Z,4.20
2018-06-19T18:08:31.355Z,5.23
2018-06-19T18:10:59.744Z,3.93
2018-06-19T18:13:28.115Z,4.17
2018-06-19T18:15:56.500Z,3.97
2018-06-19T18:18:25.067Z,4.43
2018-06-19T18:20:53.471Z,4.40
2018-06-19T18:23:21.871Z,4.20
2018-06-19T18:25:50.525Z,4.60
2018-06-19T18:28:18.887Z,4.23
2018-06-19T18:30:47.298Z,4.37
2018-06-19T18:33:15.670Z,4.63
2018-06-19T18:35:44.053Z,4.10
2018-06-19T18:38:12.445Z,5.30
2018-06-19T18:40:40.943Z,4.40
2018-06-19T18:43:09.575Z,4.37
2018-06-19T18:45:38.284Z,4.90
2018-06-19T18:48:06.645Z,5.03
2018-06-19T18:50:35.058Z,5.33
2018-06-19T18:53:03.426Z,5.97
2018-06-19T18:55:31.820Z,5.00
2018-06-19T18:58:00.197Z,5.30
2018-06-19T19:00:28.578Z,5.43
2018-06-19T19:02:57.047Z,6.40
2018-06-19T19:05:25.426Z,5.33
2018-06-19T19:07:53.824Z,5.07
2018-06-19T19:10:27.556Z,5.27
2018-06-19T19:12:55.934Z,5.33
2018-06-19T19:15:29.913Z,5.43
2018-06-19T19:19:01.303Z,5.63
2018-06-19T19:21:29.689Z,5.67
2018-06-19T19:23:58.057Z,6.40
2018-06-19T19:26:31.806Z,5.87
2018-06-19T19:29:05.389Z,5.90
2018-06-19T19:31:33.839Z,5.80
2018-06-19T19:34:02.249Z,6.30
2018-06-19T19:36:35.925Z,5.67
2018-06-19T19:39:42.078Z,5.70
2018-06-19T19:42:10.477Z,5.63
2018-06-19T19:44:38.852Z,6.13
2018-06-19T19:47:12.525Z,5.17
2018-06-19T19:49:41.084Z,4.87
2018-06-19T19:52:09.635Z,4.60
2018-06-19T19:54:38.006Z,4.50
2018-06-19T19:57:11.711Z,4.47
2018-06-19T19:59:40.133Z,3.57
2018-06-19T20:02:08.754Z,4.67
2018-06-19T20:04:37.131Z,4.07
2018-06-19T20:07:05.571Z,4.53
2018-06-19T20:09:33.965Z,3.70
2018-06-19T20:12:02.340Z,3.80
2018-06-19T20:14:30.743Z,3.80
2018-06-19T20:16:59.117Z,3.00
2018-06-19T20:19:27.517Z,2.73
2018-06-19T20:21:55.896Z,3.10
2018-06-19T20:24:24.307Z,3.23
2018-06-19T20:26:52.686Z,2.63
2018-06-19T20:29:21.076Z,3.50
2018-06-19T20:31:49.451Z,3.80
2018-06-19T20:34:17.849Z,3.00
2018-06-19T20:36:46.311Z,3.00
2018-06-19T20:39:14.719Z,2.50
2018-06-19T20:41:43.093Z,3.30
2018-06-19T20:44:11.482Z,3.20
2018-06-19T20:46:39.851Z,2.97
2018-06-19T20:49:08.250Z,2.20
2018-06-19T20:51:36.665Z,2.33
2018-06-19T20:54:05.055Z,2.10
2018-06-19T20:56:33.431Z,2.13
2018-06-19T20:59:01.949Z,2.20
2018-06-19T21:01:30.331Z,2.20
2018-06-19T21:03:58.730Z,2.10
2018-06-19T21:06:27.097Z,3.20
2018-06-19T21:08:55.517Z,4.03
2018-06-19T21:11:23.887Z,3.57
2018-06-19T21:13:52.335Z,3.07
2018-06-19T21:16:20.687Z,2.73
2018-06-19T21:18:49.142Z,2.63
2018-06-19T21:21:17.497Z,2.03
2018-06-19T21:23:45.859Z,1.77
2018-06-19T21:26:14.247Z,1.70
2018-06-19T21:28:42.618Z,1.53
2018-06-19T21:31:11.006Z,1.80
2018-06-19T21:33:39.382Z,1.50
2018-06-19T21:36:07.777Z,1.70
2018-06-19T21:38:36.154Z,1.83
2018-06-19T21:41:04.553Z,1.30
2018-06-19T21:43:32.914Z,1.57
2018-06-19T21:46:01.294Z,1.77
2018-06-19T21:48:29.686Z,1.33
2018-06-19T21:50:58.214Z,1.60
2018-06-19T21:53:26.582Z,1.37
2018-06-19T21:55:56.617Z,2.17
2018-06-19T21:58:24.982Z,4.73
2018-06-19T22:00:53.377Z,3.00
2018-06-19T22:03:21.749Z,4.30
2018-06-19T22:05:50.135Z,2.47
2018-06-19T22:08:18.545Z,2.17
2018-06-19T22:10:46.948Z,1.67
2018-06-19T22:13:15.309Z,2.50
2018-06-19T22:15:43.699Z,1.70
2018-06-19T22:18:12.061Z,1.50
2018-06-19T22:20:40.441Z,2.13
2018-06-19T22:23:08.815Z,2.37
2018-06-19T22:25:37.221Z,1.70
2018-06-19T22:28:05.741Z,1.53
2018-06-19T22:30:34.125Z,2.07
2018-06-19T22:33:02.493Z,1.70
2018-06-19T22:35:30.883Z,1.73
2018-06-19T22:37:59.251Z,1.93
2018-06-19T22:40:27.619Z,2.00
2018-06-19T22:42:56.006Z,1.47
2018-06-19T22:45:24.459Z,1.80
2018-06-19T22:47:52.913Z,2.63
2018-06-19T22:50:21.273Z,2.20
2018-06-19T22:52:49.673Z,1.90
2018-06-19T22:55:18.042Z,2.10
2018-06-19T22:57:46.438Z,2.00
2018-06-19T23:00:14.860Z,1.70
2018-06-19T23:02:43.254Z,2.43
2018-06-19T23:05:11.609Z,1.97
2018-06-19T23:07:40.018Z,2.00
2018-06-19T23:10:08.395Z,1.90
2018-06-19T23:12:36.781Z,1.83
2018-06-19T23:15:05.193Z,1.80
2018-06-19T23:17:33.587Z,1.60
2018-06-19T23:20:01.959Z,2.00
2018-06-19T23:22:30.350Z,1.87
2018-06-19T23:24:58.710Z,1.93
2018-06-19T23:27:27.097Z,1.43
2018-06-19T23:29:55.475Z,1.93
2018-06-19T23:32:23.862Z,1.80
2018-06-19T23:34:52.225Z,2.47
2018-06-19T23:37:20.613Z,2.13
2018-06-19T23:39:48.973Z,2.13
2018-06-19T23:42:17.386Z,2.40
2018-06-19T23:44:45.807Z,2.80
2018-06-19T23:47:14.205Z,2.30
2018-06-19T23:49:42.625Z,2.57
2018-06-19T23:52:11.024Z,2.50
2018-06-19T23:54:39.399Z,2.37
2018-06-19T23:57:07.795Z,1.97
2018-06-19T23:59:36.158Z,2.30
